This is the latest recevied weather packets stored in our database for station/object DM7LA-WX. If no packets are shown the sender has not sent any weather packets the latest 10 day(s).
| Time | Temp. | Humidity | Pressure | Rain* | Wind** | Luminosity | Snow |
|---|---|---|---|---|---|---|---|
| 1788433082 | 20° C | 85% | 1007.3 hPa | 0 mm | - | - | - |
| 1788429482 | 19.44° C | 85% | 1007.1 hPa | 0 mm | - | - | - |
| 1788425883 | 18.89° C | 87% | 1007.3 hPa | 0 mm | - | - | - |
| 1788422282 | 17.78° C | 87% | 1007 hPa | 0 mm | - | - | - |
| 1788418682 | 16.11° C | 90% | 1007 hPa | 0.25 mm | - | - | - |
| 1788415082 | 16.11° C | 91% | 1007.5 hPa | 0 mm | - | - | - |
| 1788411482 | 15.56° C | 91% | 1007.9 hPa | 0 mm | - | - | - |
| 1788407881 | 16.11° C | 87% | 1008.6 hPa | 0 mm | - | - | - |
| 1788404281 | 16.11° C | 87% | 1009.3 hPa | 0 mm | - | - | - |
| 1788364682 | 19.44° C | 76% | 1013.5 hPa | 0 mm | - | - | - |
| 1788361081 | 19.44° C | 76% | 1013.6 hPa | 0 mm | - | - | - |
| 1788357481 | 20° C | 72% | 1013.4 hPa | 0 mm | - | - | - |
| 1788353881 | 19.44° C | 70% | 1013.5 hPa | 0 mm | - | - | - |
| 1788350282 | 20° C | 75% | 1013.6 hPa | 0 mm | - | - | - |
| 1788346681 | 21.11° C | 71% | 1013.5 hPa | 0 mm | - | - | - |
| 1788343081 | 21.11° C | 72% | 1013.6 hPa | 0 mm | - | - | - |
| 1788339481 | 18.33° C | 78% | 1013.4 hPa | 0 mm | - | - | - |
| 1788335881 | 16.67° C | 80% | 1013.1 hPa | 0 mm | - | - | - |
| 1788332281 | 14.44° C | 84% | 1013.1 hPa | 0 mm | - | - | - |
| 1788328681 | 13.89° C | 86% | 1013.2 hPa | 0 mm | - | - | - |
| 1788299882 | 15° C | 87% | 1014.7 hPa | 0 mm | - | - | - |
| 1788292682 | 16.67° C | 76% | 1014.4 hPa | 0 mm | - | - | - |
| 1788289082 | 17.22° C | 73% | 1014.2 hPa | 0 mm | - | - | - |
| 1788285482 | 17.78° C | 72% | 1014.1 hPa | 0 mm | - | - | - |
| 1788281882 | 18.33° C | 70% | 1013.8 hPa | 0 mm | - | - | - |
* Rain latest hour (hover to see other rain measurements)
** Current wind speed in m/s (hover to see current wind gust speed)